Weather at Hewanorra International Airport

Public forecast

Using degrees Celsius for public forecast. Weather courtesy of forecast.io.

Current aviation weather report (METAR) for Hewanorra International Airport

Report is more than 6 hours old.

2022/11/14 15:00 (retrieved 2 years ago)

TLPL 141500Z 11020KT 9999 SCT028 31/24 Q1014 NOSIG

Aviation forecast (TAF) for Hewanorra International Airport

Forecast is more than 12 hours old.

2023/02/22 18:08 (retrieved 1 year ago)

TAF TLPL 221700Z 2218/2318 09020KT 9999 SCT025